sensor_id;sensor_type;location;lat;lon;timestamp;temperature;humidity
41882;DHT22;27562;47.524;12.404;2022-08-02T00:01:27;16.50;99.90
41882;DHT22;27562;47.524;12.404;2022-08-02T00:03:52;16.50;99.90
41882;DHT22;27562;47.524;12.404;2022-08-02T00:06:18;16.50;99.90
41882;DHT22;27562;47.524;12.404;2022-08-02T00:08:44;16.40;99.90
41882;DHT22;27562;47.524;12.404;2022-08-02T00:11:09;16.40;99.90
41882;DHT22;27562;47.524;12.404;2022-08-02T00:13:35;16.40;99.90
41882;DHT22;27562;47.524;12.404;2022-08-02T00:16:01;16.40;99.90
41882;DHT22;27562;47.524;12.404;2022-08-02T00:18:27;16.40;99.90
41882;DHT22;27562;47.524;12.404;2022-08-02T00:20:53;16.40;99.90
41882;DHT22;27562;47.524;12.404;2022-08-02T00:23:18;16.40;99.90
41882;DHT22;27562;47.524;12.404;2022-08-02T00:25:44;16.50;99.90
41882;DHT22;27562;47.524;12.404;2022-08-02T00:28:10;16.50;99.90
41882;DHT22;27562;47.524;12.404;2022-08-02T00:30:36;16.60;99.90
41882;DHT22;27562;47.524;12.404;2022-08-02T00:33:02;16.60;99.90
41882;DHT22;27562;47.524;12.404;2022-08-02T00:35:29;16.50;99.90
41882;DHT22;27562;47.524;12.404;2022-08-02T00:37:55;16.50;99.90
41882;DHT22;27562;47.524;12.404;2022-08-02T00:40:21;16.40;99.90
41882;DHT22;27562;47.524;12.404;2022-08-02T00:43:06;16.40;99.90
41882;DHT22;27562;47.524;12.404;2022-08-02T00:45:39;16.30;99.90
41882;DHT22;27562;47.524;12.404;2022-08-02T00:48:07;16.20;99.90
41882;DHT22;27562;47.524;12.404;2022-08-02T00:50:34;16.10;99.90
41882;DHT22;27562;47.524;12.404;2022-08-02T00:53:00;16.00;99.90
41882;DHT22;27562;47.524;12.404;2022-08-02T00:55:26;15.90;99.90
41882;DHT22;27562;47.524;12.404;2022-08-02T00:57:53;15.90;99.90
41882;DHT22;27562;47.524;12.404;2022-08-02T01:00:20;15.80;99.90
41882;DHT22;27562;47.524;12.404;2022-08-02T01:02:45;15.80;99.90
41882;DHT22;27562;47.524;12.404;2022-08-02T01:05:12;15.80;99.90
41882;DHT22;27562;47.524;12.404;2022-08-02T01:07:37;15.90;99.90
41882;DHT22;27562;47.524;12.404;2022-08-02T01:10:04;15.90;99.90
41882;DHT22;27562;47.524;12.404;2022-08-02T01:12:30;16.00;99.90
41882;DHT22;27562;47.524;12.404;2022-08-02T01:14:59;16.10;99.90
41882;DHT22;27562;47.524;12.404;2022-08-02T01:23:08;16.00;99.90
41882;DHT22;27562;47.524;12.404;2022-08-02T01:33:39;16.20;99.90
41882;DHT22;27562;47.524;12.404;2022-08-02T01:36:07;16.20;99.90
41882;DHT22;27562;47.524;12.404;2022-08-02T01:38:40;16.20;99.90
41882;DHT22;27562;47.524;12.404;2022-08-02T01:41:10;16.10;99.90
41882;DHT22;27562;47.524;12.404;2022-08-02T01:43:38;16.10;99.90
41882;DHT22;27562;47.524;12.404;2022-08-02T01:46:04;16.00;99.90
41882;DHT22;27562;47.524;12.404;2022-08-02T01:48:33;16.00;99.90
41882;DHT22;27562;47.524;12.404;2022-08-02T01:51:00;15.90;99.90
41882;DHT22;27562;47.524;12.404;2022-08-02T01:53:28;15.90;99.90
41882;DHT22;27562;47.524;12.404;2022-08-02T01:55:57;15.90;99.90
41882;DHT22;27562;47.524;12.404;2022-08-02T01:58:26;15.80;99.90
41882;DHT22;27562;47.524;12.404;2022-08-02T02:00:54;15.70;99.90
41882;DHT22;27562;47.524;12.404;2022-08-02T02:03:23;15.70;99.90
41882;DHT22;27562;47.524;12.404;2022-08-02T02:05:51;15.70;99.90
41882;DHT22;27562;47.524;12.404;2022-08-02T02:08:23;15.70;99.90
41882;DHT22;27562;47.524;12.404;2022-08-02T02:10:50;15.80;99.90
41882;DHT22;27562;47.524;12.404;2022-08-02T02:13:17;15.90;99.90
41882;DHT22;27562;47.524;12.404;2022-08-02T02:15:46;15.90;99.90
41882;DHT22;27562;47.524;12.404;2022-08-02T02:18:17;16.00;99.90
41882;DHT22;27562;47.524;12.404;2022-08-02T02:20:45;16.00;99.90
41882;DHT22;27562;47.524;12.404;2022-08-02T02:23:12;16.00;99.90
41882;DHT22;27562;47.524;12.404;2022-08-02T02:25:42;16.10;99.90
41882;DHT22;27562;47.524;12.404;2022-08-02T02:28:16;16.10;99.90
41882;DHT22;27562;47.524;12.404;2022-08-02T02:30:47;16.10;99.90
41882;DHT22;27562;47.524;12.404;2022-08-02T02:33:17;16.10;99.90
41882;DHT22;27562;47.524;12.404;2022-08-02T02:35:44;16.10;99.90
41882;DHT22;27562;47.524;12.404;2022-08-02T02:38:13;16.10;99.90
41882;DHT22;27562;47.524;12.404;2022-08-02T02:40:41;16.10;99.90
41882;DHT22;27562;47.524;12.404;2022-08-02T02:43:08;16.10;99.90
41882;DHT22;27562;47.524;12.404;2022-08-02T02:45:35;16.10;99.90
41882;DHT22;27562;47.524;12.404;2022-08-02T02:48:03;16.00;99.90
41882;DHT22;27562;47.524;12.404;2022-08-02T02:50:29;16.00;99.90
41882;DHT22;27562;47.524;12.404;2022-08-02T02:52:56;16.00;99.90
41882;DHT22;27562;47.524;12.404;2022-08-02T02:55:23;16.00;99.90
41882;DHT22;27562;47.524;12.404;2022-08-02T02:57:50;16.00;99.90
41882;DHT22;27562;47.524;12.404;2022-08-02T03:00:16;16.00;99.90
41882;DHT22;27562;47.524;12.404;2022-08-02T03:02:43;15.90;99.90
41882;DHT22;27562;47.524;12.404;2022-08-02T03:05:11;15.90;99.90
41882;DHT22;27562;47.524;12.404;2022-08-02T03:07:36;15.90;99.90
41882;DHT22;27562;47.524;12.404;2022-08-02T03:10:04;15.90;99.90
41882;DHT22;27562;47.524;12.404;2022-08-02T03:12:30;15.80;99.90
41882;DHT22;27562;47.524;12.404;2022-08-02T03:14:57;15.80;99.90
41882;DHT22;27562;47.524;12.404;2022-08-02T03:17:22;15.80;99.90
41882;DHT22;27562;47.524;12.404;2022-08-02T03:19:48;15.80;99.90
41882;DHT22;27562;47.524;12.404;2022-08-02T03:22:13;15.80;99.90
41882;DHT22;27562;47.524;12.404;2022-08-02T03:24:39;15.90;99.90
41882;DHT22;27562;47.524;12.404;2022-08-02T03:27:05;15.90;99.90
41882;DHT22;27562;47.524;12.404;2022-08-02T03:29:31;15.90;99.90
41882;DHT22;27562;47.524;12.404;2022-08-02T03:31:56;15.80;99.90
41882;DHT22;27562;47.524;12.404;2022-08-02T03:34:22;15.90;99.90
41882;DHT22;27562;47.524;12.404;2022-08-02T03:36:49;15.90;99.90
41882;DHT22;27562;47.524;12.404;2022-08-02T03:39:16;15.90;99.90
41882;DHT22;27562;47.524;12.404;2022-08-02T03:41:42;15.90;99.90
41882;DHT22;27562;47.524;12.404;2022-08-02T03:44:08;15.90;99.90
41882;DHT22;27562;47.524;12.404;2022-08-02T03:46:35;15.90;99.90
41882;DHT22;27562;47.524;12.404;2022-08-02T03:49:03;15.90;99.90
41882;DHT22;27562;47.524;12.404;2022-08-02T03:51:30;15.90;99.90
41882;DHT22;27562;47.524;12.404;2022-08-02T03:53:55;16.00;99.90
41882;DHT22;27562;47.524;12.404;2022-08-02T03:56:21;16.00;99.90
41882;DHT22;27562;47.524;12.404;2022-08-02T03:58:47;16.10;99.90
41882;DHT22;27562;47.524;12.404;2022-08-02T04:01:12;16.10;99.90
41882;DHT22;27562;47.524;12.404;2022-08-02T04:03:38;16.10;99.90
41882;DHT22;27562;47.524;12.404;2022-08-02T04:06:03;16.20;99.90
41882;DHT22;27562;47.524;12.404;2022-08-02T04:08:29;16.30;99.90
41882;DHT22;27562;47.524;12.404;2022-08-02T04:10:54;16.30;99.90
41882;DHT22;27562;47.524;12.404;2022-08-02T04:13:38;16.30;99.90
41882;DHT22;27562;47.524;12.404;2022-08-02T04:16:09;16.40;99.90
41882;DHT22;27562;47.524;12.404;2022-08-02T04:18:38;16.40;99.90
41882;DHT22;27562;47.524;12.404;2022-08-02T04:21:04;16.40;99.90
41882;DHT22;27562;47.524;12.404;2022-08-02T04:23:31;16.30;99.90
41882;DHT22;27562;47.524;12.404;2022-08-02T04:25:58;16.40;99.90
41882;DHT22;27562;47.524;12.404;2022-08-02T04:28:24;16.40;99.90
41882;DHT22;27562;47.524;12.404;2022-08-02T04:30:50;16.40;99.90
41882;DHT22;27562;47.524;12.404;2022-08-02T04:33:15;16.40;99.90
41882;DHT22;27562;47.524;12.404;2022-08-02T04:35:41;16.40;99.90
41882;DHT22;27562;47.524;12.404;2022-08-02T04:38:07;16.40;99.90
41882;DHT22;27562;47.524;12.404;2022-08-02T04:40:33;16.40;99.90
41882;DHT22;27562;47.524;12.404;2022-08-02T04:42:58;16.40;99.90
41882;DHT22;27562;47.524;12.404;2022-08-02T04:45:24;16.40;99.90
41882;DHT22;27562;47.524;12.404;2022-08-02T04:47:49;16.30;99.90
41882;DHT22;27562;47.524;12.404;2022-08-02T04:50:15;16.30;99.90
41882;DHT22;27562;47.524;12.404;2022-08-02T04:52:41;16.30;99.90
41882;DHT22;27562;47.524;12.404;2022-08-02T04:55:06;16.30;99.90
41882;DHT22;27562;47.524;12.404;2022-08-02T04:57:32;16.30;99.90
41882;DHT22;27562;47.524;12.404;2022-08-02T05:00:16;16.20;99.90
41882;DHT22;27562;47.524;12.404;2022-08-02T05:02:42;16.30;99.90
41882;DHT22;27562;47.524;12.404;2022-08-02T05:05:07;16.20;99.90
41882;DHT22;27562;47.524;12.404;2022-08-02T05:07:33;16.20;99.90
41882;DHT22;27562;47.524;12.404;2022-08-02T05:09:58;16.20;99.90
41882;DHT22;27562;47.524;12.404;2022-08-02T05:12:24;16.10;99.90
41882;DHT22;27562;47.524;12.404;2022-08-02T05:14:50;16.20;99.90
41882;DHT22;27562;47.524;12.404;2022-08-02T05:17:16;16.10;99.90
41882;DHT22;27562;47.524;12.404;2022-08-02T05:19:41;16.20;99.90
41882;DHT22;27562;47.524;12.404;2022-08-02T05:22:07;16.20;99.90
41882;DHT22;27562;47.524;12.404;2022-08-02T05:24:32;16.20;99.90
41882;DHT22;27562;47.524;12.404;2022-08-02T05:26:58;16.20;99.90
41882;DHT22;27562;47.524;12.404;2022-08-02T05:29:23;16.30;99.90
41882;DHT22;27562;47.524;12.404;2022-08-02T05:31:49;16.40;99.90
41882;DHT22;27562;47.524;12.404;2022-08-02T05:34:14;16.40;99.90
41882;DHT22;27562;47.524;12.404;2022-08-02T05:36:40;16.50;99.90
41882;DHT22;27562;47.524;12.404;2022-08-02T05:39:06;16.50;99.90
41882;DHT22;27562;47.524;12.404;2022-08-02T05:41:32;16.50;99.90
41882;DHT22;27562;47.524;12.404;2022-08-02T05:43:57;16.50;99.90
41882;DHT22;27562;47.524;12.404;2022-08-02T05:46:23;16.60;99.90
41882;DHT22;27562;47.524;12.404;2022-08-02T05:48:48;16.70;99.90
41882;DHT22;27562;47.524;12.404;2022-08-02T05:51:36;16.70;99.90
41882;DHT22;27562;47.524;12.404;2022-08-02T05:56:33;16.80;99.90
41882;DHT22;27562;47.524;12.404;2022-08-02T05:59:02;16.90;99.90
41882;DHT22;27562;47.524;12.404;2022-08-02T06:01:37;16.90;99.90
41882;DHT22;27562;47.524;12.404;2022-08-02T06:04:05;17.00;99.90
41882;DHT22;27562;47.524;12.404;2022-08-02T06:06:31;17.10;99.90
41882;DHT22;27562;47.524;12.404;2022-08-02T06:08:58;17.10;99.90
41882;DHT22;27562;47.524;12.404;2022-08-02T06:11:23;17.20;99.90
41882;DHT22;27562;47.524;12.404;2022-08-02T06:13:54;17.30;99.90
41882;DHT22;27562;47.524;12.404;2022-08-02T06:16:20;17.30;99.90
41882;DHT22;27562;47.524;12.404;2022-08-02T06:18:47;17.40;99.90
41882;DHT22;27562;47.524;12.404;2022-08-02T06:21:13;17.40;99.90
41882;DHT22;27562;47.524;12.404;2022-08-02T06:23:40;17.40;99.90
41882;DHT22;27562;47.524;12.404;2022-08-02T06:26:06;17.40;99.90
41882;DHT22;27562;47.524;12.404;2022-08-02T06:28:35;17.40;99.90
41882;DHT22;27562;47.524;12.404;2022-08-02T06:31:01;17.50;99.90
41882;DHT22;27562;47.524;12.404;2022-08-02T06:33:27;17.50;99.90
41882;DHT22;27562;47.524;12.404;2022-08-02T06:35:56;17.60;99.90
41882;DHT22;27562;47.524;12.404;2022-08-02T06:38:27;17.70;99.90
41882;DHT22;27562;47.524;12.404;2022-08-02T06:45:55;17.80;99.90
41882;DHT22;27562;47.524;12.404;2022-08-02T06:48:21;17.80;99.90
41882;DHT22;27562;47.524;12.404;2022-08-02T06:50:46;17.90;99.90
41882;DHT22;27562;47.524;12.404;2022-08-02T06:53:12;17.90;99.90
41882;DHT22;27562;47.524;12.404;2022-08-02T06:55:38;18.00;99.90
41882;DHT22;27562;47.524;12.404;2022-08-02T06:58:03;18.10;99.90
41882;DHT22;27562;47.524;12.404;2022-08-02T07:00:29;18.10;99.90
41882;DHT22;27562;47.524;12.404;2022-08-02T07:02:55;18.20;99.90
41882;DHT22;27562;47.524;12.404;2022-08-02T07:05:21;18.20;99.90
41882;DHT22;27562;47.524;12.404;2022-08-02T07:07:46;18.30;99.90
41882;DHT22;27562;47.524;12.404;2022-08-02T07:10:12;18.30;99.90
41882;DHT22;27562;47.524;12.404;2022-08-02T07:12:38;18.30;99.90
41882;DHT22;27562;47.524;12.404;2022-08-02T07:15:04;18.30;99.90
41882;DHT22;27562;47.524;12.404;2022-08-02T07:17:30;18.30;99.90
41882;DHT22;27562;47.524;12.404;2022-08-02T07:19:56;18.30;99.90
41882;DHT22;27562;47.524;12.404;2022-08-02T07:22:22;18.40;99.90
41882;DHT22;27562;47.524;12.404;2022-08-02T07:24:49;18.40;99.90
41882;DHT22;27562;47.524;12.404;2022-08-02T07:27:14;18.50;99.90
41882;DHT22;27562;47.524;12.404;2022-08-02T07:29:40;18.60;99.90
41882;DHT22;27562;47.524;12.404;2022-08-02T07:32:06;18.70;99.90
41882;DHT22;27562;47.524;12.404;2022-08-02T07:34:31;18.90;99.90
41882;DHT22;27562;47.524;12.404;2022-08-02T07:36:57;19.00;99.90
41882;DHT22;27562;47.524;12.404;2022-08-02T07:39:22;19.10;99.90
41882;DHT22;27562;47.524;12.404;2022-08-02T07:41:48;19.20;99.90
41882;DHT22;27562;47.524;12.404;2022-08-02T07:44:16;19.40;99.90
41882;DHT22;27562;47.524;12.404;2022-08-02T07:46:42;19.50;99.90
41882;DHT22;27562;47.524;12.404;2022-08-02T07:49:09;19.60;99.90
41882;DHT22;27562;47.524;12.404;2022-08-02T07:51:34;19.60;99.90
41882;DHT22;27562;47.524;12.404;2022-08-02T07:54:01;19.70;99.90
41882;DHT22;27562;47.524;12.404;2022-08-02T07:56:27;19.90;99.90
41882;DHT22;27562;47.524;12.404;2022-08-02T07:58:52;19.90;99.90
41882;DHT22;27562;47.524;12.404;2022-08-02T08:01:18;20.00;99.90
41882;DHT22;27562;47.524;12.404;2022-08-02T08:03:44;20.10;99.90
41882;DHT22;27562;47.524;12.404;2022-08-02T08:06:10;20.20;99.90
41882;DHT22;27562;47.524;12.404;2022-08-02T08:08:35;20.30;99.90
41882;DHT22;27562;47.524;12.404;2022-08-02T08:11:01;20.30;99.90
41882;DHT22;27562;47.524;12.404;2022-08-02T08:13:27;20.40;99.90
41882;DHT22;27562;47.524;12.404;2022-08-02T08:15:52;20.50;99.90
41882;DHT22;27562;47.524;12.404;2022-08-02T08:18:19;20.60;99.90
41882;DHT22;27562;47.524;12.404;2022-08-02T08:20:45;20.70;99.90
41882;DHT22;27562;47.524;12.404;2022-08-02T08:23:10;20.90;99.90
41882;DHT22;27562;47.524;12.404;2022-08-02T08:25:36;21.00;99.90
41882;DHT22;27562;47.524;12.404;2022-08-02T08:28:01;21.10;99.90
41882;DHT22;27562;47.524;12.404;2022-08-02T08:30:27;21.20;99.90
41882;DHT22;27562;47.524;12.404;2022-08-02T08:32:52;21.30;99.90
41882;DHT22;27562;47.524;12.404;2022-08-02T08:35:18;21.50;99.90
41882;DHT22;27562;47.524;12.404;2022-08-02T08:37:44;21.60;99.90
41882;DHT22;27562;47.524;12.404;2022-08-02T08:40:09;21.80;99.90
41882;DHT22;27562;47.524;12.404;2022-08-02T08:42:36;22.00;99.90
41882;DHT22;27562;47.524;12.404;2022-08-02T08:45:02;22.10;99.90
41882;DHT22;27562;47.524;12.404;2022-08-02T08:47:32;22.30;99.90
41882;DHT22;27562;47.524;12.404;2022-08-02T08:49:57;22.40;99.90
41882;DHT22;27562;47.524;12.404;2022-08-02T08:52:24;22.40;99.90
41882;DHT22;27562;47.524;12.404;2022-08-02T08:54:51;22.40;99.90
41882;DHT22;27562;47.524;12.404;2022-08-02T08:57:17;22.30;99.90
41882;DHT22;27562;47.524;12.404;2022-08-02T08:59:44;22.20;99.90
41882;DHT22;27562;47.524;12.404;2022-08-02T09:02:10;22.10;99.90
41882;DHT22;27562;47.524;12.404;2022-08-02T09:04:35;22.00;99.90
41882;DHT22;27562;47.524;12.404;2022-08-02T09:07:01;22.00;99.90
41882;DHT22;27562;47.524;12.404;2022-08-02T09:09:27;21.90;99.90
41882;DHT22;27562;47.524;12.404;2022-08-02T09:11:52;21.90;99.90
41882;DHT22;27562;47.524;12.404;2022-08-02T09:14:24;22.00;99.90
41882;DHT22;27562;47.524;12.404;2022-08-02T09:16:51;22.00;99.90
41882;DHT22;27562;47.524;12.404;2022-08-02T09:19:25;22.00;99.90
41882;DHT22;27562;47.524;12.404;2022-08-02T09:22:00;22.10;99.90
41882;DHT22;27562;47.524;12.404;2022-08-02T09:24:26;22.30;99.90
41882;DHT22;27562;47.524;12.404;2022-08-02T09:26:51;22.60;99.90
41882;DHT22;27562;47.524;12.404;2022-08-02T09:29:21;22.90;99.20
41882;DHT22;27562;47.524;12.404;2022-08-02T09:31:47;23.10;98.40
41882;DHT22;27562;47.524;12.404;2022-08-02T09:34:13;23.20;98.80
41882;DHT22;27562;47.524;12.404;2022-08-02T09:36:40;23.40;97.50
41882;DHT22;27562;47.524;12.404;2022-08-02T09:39:07;23.60;96.90
41882;DHT22;27562;47.524;12.404;2022-08-02T09:41:34;23.80;97.30
41882;DHT22;27562;47.524;12.404;2022-08-02T09:44:01;23.90;97.60
41882;DHT22;27562;47.524;12.404;2022-08-02T09:46:28;24.00;96.60
41882;DHT22;27562;47.524;12.404;2022-08-02T09:48:55;24.10;96.20
41882;DHT22;27562;47.524;12.404;2022-08-02T09:51:22;24.20;96.50
41882;DHT22;27562;47.524;12.404;2022-08-02T09:53:49;24.30;94.90
41882;DHT22;27562;47.524;12.404;2022-08-02T09:56:15;24.40;93.30
41882;DHT22;27562;47.524;12.404;2022-08-02T09:58:41;24.40;91.50
41882;DHT22;27562;47.524;12.404;2022-08-02T10:01:06;24.50;93.00
41882;DHT22;27562;47.524;12.404;2022-08-02T10:03:33;24.70;92.70
41882;DHT22;27562;47.524;12.404;2022-08-02T10:05:58;24.90;92.50
41882;DHT22;27562;47.524;12.404;2022-08-02T10:08:26;25.00;93.90
41882;DHT22;27562;47.524;12.404;2022-08-02T10:10:52;25.00;91.70
41882;DHT22;27562;47.524;12.404;2022-08-02T10:13:28;25.20;91.70
41882;DHT22;27562;47.524;12.404;2022-08-02T10:15:57;25.40;90.90
41882;DHT22;27562;47.524;12.404;2022-08-02T10:18:23;25.40;91.30
41882;DHT22;27562;47.524;12.404;2022-08-02T10:20:49;25.50;91.20
41882;DHT22;27562;47.524;12.404;2022-08-02T10:23:15;25.60;88.90
41882;DHT22;27562;47.524;12.404;2022-08-02T10:25:41;25.70;90.40
41882;DHT22;27562;47.524;12.404;2022-08-02T10:28:07;25.70;90.40
41882;DHT22;27562;47.524;12.404;2022-08-02T10:30:37;25.70;90.50
41882;DHT22;27562;47.524;12.404;2022-08-02T10:33:03;25.70;90.60
41882;DHT22;27562;47.524;12.404;2022-08-02T10:35:31;25.80;87.50
41882;DHT22;27562;47.524;12.404;2022-08-02T10:37:59;25.80;84.20
41882;DHT22;27562;47.524;12.404;2022-08-02T10:40:40;25.90;90.40
41882;DHT22;27562;47.524;12.404;2022-08-02T10:43:06;26.00;90.00
41882;DHT22;27562;47.524;12.404;2022-08-02T10:45:32;26.10;86.00
41882;DHT22;27562;47.524;12.404;2022-08-02T10:48:00;26.20;88.00
41882;DHT22;27562;47.524;12.404;2022-08-02T10:55:44;25.50;86.30
41882;DHT22;27562;47.524;12.404;2022-08-02T10:58:17;25.20;88.00
41882;DHT22;27562;47.524;12.404;2022-08-02T11:00:43;25.00;89.00
41882;DHT22;27562;47.524;12.404;2022-08-02T11:06:26;24.70;88.70
41882;DHT22;27562;47.524;12.404;2022-08-02T11:08:45;24.60;89.40
41882;DHT22;27562;47.524;12.404;2022-08-02T11:16:20;24.60;89.50
41882;DHT22;27562;47.524;12.404;2022-08-02T11:23:46;24.50;90.20
41882;DHT22;27562;47.524;12.404;2022-08-02T11:28:59;24.40;89.70
41882;DHT22;27562;47.524;12.404;2022-08-02T11:31:25;24.30;89.60
41882;DHT22;27562;47.524;12.404;2022-08-02T11:33:50;24.30;88.30
41882;DHT22;27562;47.524;12.404;2022-08-02T11:36:16;24.30;90.10
41882;DHT22;27562;47.524;12.404;2022-08-02T11:38:42;24.30;90.30
41882;DHT22;27562;47.524;12.404;2022-08-02T11:41:08;24.20;90.60
41882;DHT22;27562;47.524;12.404;2022-08-02T11:43:34;24.20;90.70
41882;DHT22;27562;47.524;12.404;2022-08-02T11:46:02;24.20;91.00
41882;DHT22;27562;47.524;12.404;2022-08-02T11:48:32;24.20;91.00
41882;DHT22;27562;47.524;12.404;2022-08-02T11:51:08;24.20;90.30
41882;DHT22;27562;47.524;12.404;2022-08-02T11:53:41;24.30;90.90
41882;DHT22;27562;47.524;12.404;2022-08-02T11:56:08;24.30;90.30
41882;DHT22;27562;47.524;12.404;2022-08-02T11:58:34;24.50;90.70
41882;DHT22;27562;47.524;12.404;2022-08-02T12:00:59;24.60;90.50
41882;DHT22;27562;47.524;12.404;2022-08-02T12:03:25;24.70;90.00
41882;DHT22;27562;47.524;12.404;2022-08-02T12:05:51;24.80;90.30
41882;DHT22;27562;47.524;12.404;2022-08-02T12:08:17;25.10;87.50
41882;DHT22;27562;47.524;12.404;2022-08-02T12:10:47;25.20;86.60
41882;DHT22;27562;47.524;12.404;2022-08-02T12:13:13;25.30;87.00
41882;DHT22;27562;47.524;12.404;2022-08-02T12:15:39;25.20;84.00
41882;DHT22;27562;47.524;12.404;2022-08-02T12:18:09;25.10;86.40
41882;DHT22;27562;47.524;12.404;2022-08-02T12:20:54;25.00;88.40
41882;DHT22;27562;47.524;12.404;2022-08-02T12:23:19;24.90;89.70
41882;DHT22;27562;47.524;12.404;2022-08-02T12:25:45;24.80;87.90
41882;DHT22;27562;47.524;12.404;2022-08-02T12:28:14;24.70;86.90
41882;DHT22;27562;47.524;12.404;2022-08-02T12:30:50;24.60;87.80
41882;DHT22;27562;47.524;12.404;2022-08-02T12:33:16;24.50;88.40
41882;DHT22;27562;47.524;12.404;2022-08-02T12:35:42;24.50;89.30
41882;DHT22;27562;47.524;12.404;2022-08-02T12:38:08;24.40;90.90
41882;DHT22;27562;47.524;12.404;2022-08-02T12:40:33;24.40;90.90
41882;DHT22;27562;47.524;12.404;2022-08-02T12:43:00;24.40;91.40
41882;DHT22;27562;47.524;12.404;2022-08-02T12:45:26;24.40;90.50
41882;DHT22;27562;47.524;12.404;2022-08-02T12:47:53;24.30;91.00
41882;DHT22;27562;47.524;12.404;2022-08-02T12:50:20;24.20;90.50
41882;DHT22;27562;47.524;12.404;2022-08-02T12:52:47;24.20;90.20
41882;DHT22;27562;47.524;12.404;2022-08-02T12:55:16;24.30;90.00
41882;DHT22;27562;47.524;12.404;2022-08-02T12:57:52;24.30;91.00
41882;DHT22;27562;47.524;12.404;2022-08-02T13:00:21;24.40;91.40
41882;DHT22;27562;47.524;12.404;2022-08-02T13:02:47;24.50;91.30
41882;DHT22;27562;47.524;12.404;2022-08-02T13:05:13;24.70;90.70
41882;DHT22;27562;47.524;12.404;2022-08-02T13:07:38;24.90;85.20
41882;DHT22;27562;47.524;12.404;2022-08-02T13:10:04;25.00;86.10
41882;DHT22;27562;47.524;12.404;2022-08-02T13:12:29;25.10;86.60
41882;DHT22;27562;47.524;12.404;2022-08-02T13:14:55;25.10;86.50
41882;DHT22;27562;47.524;12.404;2022-08-02T13:17:20;25.10;83.60
41882;DHT22;27562;47.524;12.404;2022-08-02T13:19:46;25.10;82.80
41882;DHT22;27562;47.524;12.404;2022-08-02T13:22:12;25.10;83.90
41882;DHT22;27562;47.524;12.404;2022-08-02T13:24:37;25.10;83.50
41882;DHT22;27562;47.524;12.404;2022-08-02T13:27:03;25.20;87.10
41882;DHT22;27562;47.524;12.404;2022-08-02T13:29:28;25.30;85.50
41882;DHT22;27562;47.524;12.404;2022-08-02T13:31:54;25.30;82.20
41882;DHT22;27562;47.524;12.404;2022-08-02T13:34:19;25.40;82.10
41882;DHT22;27562;47.524;12.404;2022-08-02T13:36:45;25.40;82.90
41882;DHT22;27562;47.524;12.404;2022-08-02T13:39:10;25.50;83.40
41882;DHT22;27562;47.524;12.404;2022-08-02T13:41:36;25.50;80.60
41882;DHT22;27562;47.524;12.404;2022-08-02T13:44:02;25.60;80.00
41882;DHT22;27562;47.524;12.404;2022-08-02T13:46:28;25.60;80.10
41882;DHT22;27562;47.524;12.404;2022-08-02T13:48:53;25.80;81.50
41882;DHT22;27562;47.524;12.404;2022-08-02T13:51:19;25.90;80.10
41882;DHT22;27562;47.524;12.404;2022-08-02T13:53:44;26.00;79.60
41882;DHT22;27562;47.524;12.404;2022-08-02T13:56:10;26.00;79.30
41882;DHT22;27562;47.524;12.404;2022-08-02T13:58:35;26.10;79.60
41882;DHT22;27562;47.524;12.404;2022-08-02T14:01:01;26.30;81.80
41882;DHT22;27562;47.524;12.404;2022-08-02T14:03:26;26.40;80.70
41882;DHT22;27562;47.524;12.404;2022-08-02T14:05:52;26.50;84.50
41882;DHT22;27562;47.524;12.404;2022-08-02T14:08:18;26.70;80.50
41882;DHT22;27562;47.524;12.404;2022-08-02T14:10:47;26.90;78.10
41882;DHT22;27562;47.524;12.404;2022-08-02T14:13:13;27.00;78.90
41882;DHT22;27562;47.524;12.404;2022-08-02T14:15:39;27.10;78.60
41882;DHT22;27562;47.524;12.404;2022-08-02T14:18:04;27.20;78.50
41882;DHT22;27562;47.524;12.404;2022-08-02T14:20:30;27.30;76.80
41882;DHT22;27562;47.524;12.404;2022-08-02T14:22:55;27.50;77.90
41882;DHT22;27562;47.524;12.404;2022-08-02T14:25:21;27.50;74.40
41882;DHT22;27562;47.524;12.404;2022-08-02T14:27:47;27.70;75.90
41882;DHT22;27562;47.524;12.404;2022-08-02T14:30:12;27.80;76.20
41882;DHT22;27562;47.524;12.404;2022-08-02T14:32:38;28.00;71.90
41882;DHT22;27562;47.524;12.404;2022-08-02T14:35:04;28.00;75.90
41882;DHT22;27562;47.524;12.404;2022-08-02T14:37:29;28.20;71.60
41882;DHT22;27562;47.524;12.404;2022-08-02T14:39:55;28.30;72.00
41882;DHT22;27562;47.524;12.404;2022-08-02T14:42:21;28.40;69.80
41882;DHT22;27562;47.524;12.404;2022-08-02T14:44:46;28.40;69.20
41882;DHT22;27562;47.524;12.404;2022-08-02T14:47:12;28.40;71.30
41882;DHT22;27562;47.524;12.404;2022-08-02T14:49:38;28.40;69.40
41882;DHT22;27562;47.524;12.404;2022-08-02T14:52:03;28.30;69.40
41882;DHT22;27562;47.524;12.404;2022-08-02T14:54:29;28.20;70.10
41882;DHT22;27562;47.524;12.404;2022-08-02T14:56:57;28.20;69.20
41882;DHT22;27562;47.524;12.404;2022-08-02T14:59:23;28.20;68.30
41882;DHT22;27562;47.524;12.404;2022-08-02T15:01:49;28.10;69.60
41882;DHT22;27562;47.524;12.404;2022-08-02T15:04:15;28.00;69.60
41882;DHT22;27562;47.524;12.404;2022-08-02T15:06:41;27.80;69.10
41882;DHT22;27562;47.524;12.404;2022-08-02T15:09:06;27.70;70.30
41882;DHT22;27562;47.524;12.404;2022-08-02T15:11:32;27.80;70.00
41882;DHT22;27562;47.524;12.404;2022-08-02T15:13:58;27.90;69.90
41882;DHT22;27562;47.524;12.404;2022-08-02T15:16:24;28.00;70.20
41882;DHT22;27562;47.524;12.404;2022-08-02T15:18:50;28.10;68.40
41882;DHT22;27562;47.524;12.404;2022-08-02T15:21:16;28.10;70.10
41882;DHT22;27562;47.524;12.404;2022-08-02T15:23:42;28.00;69.30
41882;DHT22;27562;47.524;12.404;2022-08-02T15:26:07;27.80;69.20
41882;DHT22;27562;47.524;12.404;2022-08-02T15:28:33;27.60;70.30
41882;DHT22;27562;47.524;12.404;2022-08-02T15:30:59;27.50;71.00
41882;DHT22;27562;47.524;12.404;2022-08-02T15:33:25;27.30;70.70
41882;DHT22;27562;47.524;12.404;2022-08-02T15:35:51;27.40;70.40
41882;DHT22;27562;47.524;12.404;2022-08-02T15:38:17;27.40;68.40
41882;DHT22;27562;47.524;12.404;2022-08-02T15:40:42;27.40;68.80
41882;DHT22;27562;47.524;12.404;2022-08-02T15:43:09;27.40;69.30
41882;DHT22;27562;47.524;12.404;2022-08-02T15:45:35;27.50;70.50
41882;DHT22;27562;47.524;12.404;2022-08-02T15:48:02;27.60;71.30
41882;DHT22;27562;47.524;12.404;2022-08-02T15:50:28;27.70;68.50
41882;DHT22;27562;47.524;12.404;2022-08-02T15:52:54;27.70;69.00
41882;DHT22;27562;47.524;12.404;2022-08-02T15:55:20;27.70;69.70